createdAt,value
2022-08-17T00:00:42.861Z,24.94
2022-08-17T00:03:19.406Z,23.74
2022-08-17T00:06:00.081Z,23.03
2022-08-17T00:08:32.609Z,23.70
2022-08-17T00:11:01.807Z,24.24
2022-08-17T00:13:36.991Z,24.52
2022-08-17T00:16:11.331Z,24.62
2022-08-17T00:19:06.744Z,24.70
2022-08-17T00:21:49.168Z,24.90
2022-08-17T00:24:18.104Z,24.64
2022-08-17T00:26:47.170Z,23.49
2022-08-17T00:29:19.722Z,22.74
2022-08-17T00:31:49.540Z,23.23
2022-08-17T00:34:18.100Z,23.71
2022-08-17T00:36:46.106Z,23.97
2022-08-17T00:39:14.227Z,24.17
2022-08-17T00:41:42.763Z,24.41
2022-08-17T00:44:12.448Z,24.59
2022-08-17T00:46:42.995Z,24.71
2022-08-17T00:49:13.744Z,24.77
2022-08-17T00:52:15.697Z,24.74
2022-08-17T00:54:47.103Z,24.66
2022-08-17T00:57:32.995Z,24.62
2022-08-17T01:00:06.504Z,24.65
2022-08-17T01:02:42.265Z,24.72
2022-08-17T01:05:18.648Z,24.86
2022-08-17T01:07:51.010Z,24.66
2022-08-17T01:10:59.305Z,23.53
2022-08-17T01:13:13.897Z,22.86
2022-08-17T01:15:49.067Z,23.53
2022-08-17T01:18:17.112Z,24.03
2022-08-17T01:20:49.850Z,24.17
2022-08-17T01:23:21.401Z,24.20
2022-08-17T01:25:52.085Z,24.13
2022-08-17T01:28:52.418Z,24.05
2022-08-17T01:31:09.524Z,24.10
2022-08-17T01:33:37.909Z,24.15
2022-08-17T01:36:07.415Z,24.10
2022-08-17T01:38:37.273Z,24.08
2022-08-17T01:41:15.543Z,24.12
2022-08-17T01:43:52.243Z,24.21
2022-08-17T01:46:27.322Z,24.31
2022-08-17T01:48:58.597Z,24.31
2022-08-17T01:51:33.298Z,24.33
2022-08-17T01:54:11.223Z,24.40
2022-08-17T01:56:47.930Z,24.41
2022-08-17T01:59:20.240Z,24.45
2022-08-17T02:01:48.429Z,24.38
2022-08-17T02:04:16.463Z,24.27
2022-08-17T02:06:52.569Z,24.26
2022-08-17T02:09:29.597Z,24.28
2022-08-17T02:12:38.186Z,24.36
2022-08-17T02:14:50.439Z,24.31
2022-08-17T02:17:18.488Z,24.37
2022-08-17T02:19:46.516Z,24.46
2022-08-17T02:22:15.758Z,24.43
2022-08-17T02:24:59.469Z,24.45
2022-08-17T02:27:30.118Z,24.45
2022-08-17T02:29:58.134Z,24.39
2022-08-17T02:32:28.523Z,24.41
2022-08-17T02:34:58.075Z,24.42
2022-08-17T02:37:27.532Z,24.43
2022-08-17T02:39:59.628Z,24.44
2022-08-17T02:42:38.456Z,24.42
2022-08-17T02:45:13.934Z,24.42
2022-08-17T02:47:43.602Z,24.46
2022-08-17T02:50:14.769Z,24.48
2022-08-17T02:52:45.057Z,24.46
2022-08-17T02:55:34.663Z,24.48
2022-08-17T02:58:03.931Z,24.45
2022-08-17T03:00:36.077Z,24.47
2022-08-17T03:03:30.520Z,24.27
2022-08-17T03:05:58.697Z,22.94
2022-08-17T03:09:43.229Z,22.20
2022-08-17T03:12:13.599Z,23.19
2022-08-17T03:14:43.357Z,23.70
2022-08-17T03:17:16.969Z,24.06
2022-08-17T03:19:45.354Z,24.33
2022-08-17T03:22:37.176Z,24.53
2022-08-17T03:25:01.246Z,24.75
2022-08-17T03:27:30.286Z,24.94
2022-08-17T03:29:58.220Z,24.79
2022-08-17T03:32:26.144Z,23.64
2022-08-17T03:34:59.617Z,22.79
2022-08-17T03:37:27.537Z,23.22
2022-08-17T03:39:55.693Z,23.72
2022-08-17T03:42:31.327Z,23.95
2022-08-17T03:45:01.553Z,24.07
2022-08-17T03:47:48.257Z,24.12
2022-08-17T03:50:36.854Z,24.17
2022-08-17T03:53:27.977Z,24.37
2022-08-17T03:56:19.060Z,24.56
2022-08-17T03:58:47.185Z,24.73
2022-08-17T04:01:16.393Z,24.81
2022-08-17T04:03:44.562Z,24.61
2022-08-17T04:06:12.498Z,23.54
2022-08-17T04:08:40.460Z,22.48
2022-08-17T04:11:08.353Z,22.06
2022-08-17T04:13:36.239Z,23.07
2022-08-17T04:16:04.458Z,23.93
2022-08-17T04:18:32.417Z,24.41
2022-08-17T04:21:01.633Z,24.72
2022-08-17T04:23:33.770Z,24.97
2022-08-17T04:26:02.192Z,25.21
2022-08-17T04:28:31.188Z,25.43
2022-08-17T04:30:59.269Z,25.38
2022-08-17T04:33:29.579Z,24.32
2022-08-17T04:36:00.640Z,23.63
2022-08-17T04:38:32.194Z,24.34
2022-08-17T04:41:19.604Z,24.87
2022-08-17T04:43:49.670Z,25.24
2022-08-17T04:46:19.625Z,25.49
2022-08-17T04:48:51.083Z,25.40
2022-08-17T04:51:28.241Z,24.40
2022-08-17T04:54:00.454Z,23.79
2022-08-17T04:56:30.382Z,24.67
2022-08-17T04:59:06.015Z,25.37
2022-08-17T05:01:36.701Z,25.81
2022-08-17T05:04:20.965Z,26.09
2022-08-17T05:06:59.263Z,26.36
2022-08-17T05:09:29.198Z,26.29
2022-08-17T05:12:01.567Z,25.18
2022-08-17T05:14:33.093Z,24.52
2022-08-17T05:17:09.393Z,25.40
2022-08-17T05:19:39.516Z,26.15
2022-08-17T05:22:08.088Z,26.30
2022-08-17T05:24:43.292Z,25.17
2022-08-17T05:27:19.556Z,24.32
2022-08-17T05:29:47.677Z,24.95
2022-08-17T05:32:38.550Z,25.52
2022-08-17T05:35:05.815Z,25.94
2022-08-17T05:37:33.778Z,25.57
2022-08-17T05:40:01.863Z,24.27
2022-08-17T05:42:29.954Z,24.03
2022-08-17T05:44:58.340Z,24.95
2022-08-17T05:47:27.435Z,25.24
2022-08-17T05:49:55.694Z,25.52
2022-08-17T05:52:42.226Z,25.79
2022-08-17T05:55:13.362Z,25.87
2022-08-17T05:57:56.351Z,25.81
2022-08-17T06:00:37.291Z,26.14
2022-08-17T06:03:18.583Z,26.46
2022-08-17T06:05:50.568Z,25.29
2022-08-17T06:08:27.614Z,24.50
2022-08-17T06:11:20.074Z,25.43
2022-08-17T06:13:48.310Z,26.27
2022-08-17T06:16:33.247Z,26.61
2022-08-17T06:19:11.857Z,26.86
2022-08-17T06:21:43.937Z,27.18
2022-08-17T06:24:20.511Z,26.93
2022-08-17T06:26:49.168Z,25.83
2022-08-17T06:29:41.550Z,25.42
2022-08-17T06:32:13.006Z,26.37
2022-08-17T06:34:43.796Z,27.20
2022-08-17T06:37:39.295Z,27.47
2022-08-17T06:40:22.281Z,26.60
2022-08-17T06:43:16.017Z,25.88
2022-08-17T06:45:49.618Z,25.81
2022-08-17T06:48:36.539Z,26.98
2022-08-17T06:51:17.762Z,27.28
2022-08-17T06:53:52.758Z,26.49
2022-08-17T06:56:54.532Z,25.80
2022-08-17T06:59:53.011Z,26.53
2022-08-17T07:02:53.045Z,27.85
2022-08-17T07:05:26.677Z,27.34
2022-08-17T07:08:45.879Z,26.48
2022-08-17T07:11:21.370Z,25.67
2022-08-17T07:14:16.939Z,25.91
2022-08-17T07:16:54.224Z,27.65
2022-08-17T07:19:26.846Z,27.26
2022-08-17T07:22:04.067Z,26.58
2022-08-17T07:24:43.389Z,26.14
2022-08-17T07:27:21.405Z,25.83
2022-08-17T07:29:57.997Z,26.06
2022-08-17T07:32:34.525Z,27.76
2022-08-17T07:35:10.743Z,27.86
2022-08-17T07:38:03.875Z,27.02
2022-08-17T07:40:36.646Z,26.48
2022-08-17T07:43:21.817Z,26.18
2022-08-17T07:46:32.734Z,26.42
2022-08-17T07:49:03.726Z,28.29
2022-08-17T07:51:36.601Z,28.37
2022-08-17T07:54:22.694Z,27.74
2022-08-17T07:57:01.530Z,27.13
2022-08-17T07:59:35.546Z,26.83
2022-08-17T08:02:31.105Z,26.63
2022-08-17T08:05:09.035Z,26.51
2022-08-17T08:08:00.880Z,26.42
2022-08-17T08:10:38.243Z,26.96
2022-08-17T08:13:15.747Z,28.26
2022-08-17T08:15:54.076Z,28.25
2022-08-17T08:18:54.917Z,27.84
2022-08-17T08:21:43.165Z,27.56
2022-08-17T08:24:40.820Z,27.43
2022-08-17T08:27:39.281Z,27.40
2022-08-17T08:30:21.681Z,27.42
2022-08-17T08:33:08.627Z,27.35
2022-08-17T08:35:52.482Z,27.39
2022-08-17T08:38:47.515Z,27.41
2022-08-17T08:41:24.449Z,27.42
2022-08-17T08:43:58.609Z,27.44
2022-08-17T08:46:31.189Z,27.48
2022-08-17T08:50:01.427Z,27.50
2022-08-17T08:52:31.156Z,27.55
2022-08-17T08:55:05.488Z,27.63
2022-08-17T08:58:31.497Z,27.74
2022-08-17T09:01:21.283Z,27.91
2022-08-17T09:04:25.385Z,28.02
2022-08-17T09:07:05.687Z,28.03
2022-08-17T09:09:59.023Z,27.93
2022-08-17T09:12:49.214Z,27.96
2022-08-17T09:15:26.806Z,28.13
2022-08-17T09:18:36.443Z,28.31
2022-08-17T09:21:01.681Z,28.31
2022-08-17T09:24:00.079Z,28.34
2022-08-17T09:26:56.395Z,28.42
2022-08-17T09:29:29.603Z,28.61
2022-08-17T09:32:03.735Z,28.86
2022-08-17T09:34:43.426Z,29.08
2022-08-17T09:37:29.722Z,29.08
2022-08-17T09:39:57.708Z,29.04
2022-08-17T09:42:49.999Z,29.12
2022-08-17T09:45:47.259Z,29.30
2022-08-17T09:48:20.993Z,29.36
2022-08-17T09:51:15.300Z,29.25
2022-08-17T09:53:44.720Z,29.00
2022-08-17T09:56:31.723Z,28.81
2022-08-17T09:59:08.194Z,28.91
2022-08-17T10:02:17.166Z,29.18
2022-08-17T10:04:59.412Z,29.26
2022-08-17T10:07:40.785Z,29.42
2022-08-17T10:10:14.615Z,29.49
2022-08-17T10:12:48.743Z,29.48
2022-08-17T10:15:29.896Z,29.36
2022-08-17T10:18:31.841Z,29.44
2022-08-17T10:21:25.378Z,29.59
2022-08-17T10:25:21.560Z,29.73
2022-08-17T10:27:48.893Z,29.81
2022-08-17T10:30:20.133Z,29.99
2022-08-17T10:32:55.154Z,30.16
2022-08-17T10:35:49.640Z,30.36
2022-08-17T10:38:38.549Z,30.63
2022-08-17T10:41:40.875Z,30.72
2022-08-17T10:44:42.549Z,30.74
2022-08-17T10:47:16.929Z,30.85
2022-08-17T10:49:54.295Z,30.85
2022-08-17T10:52:24.821Z,30.61
2022-08-17T10:54:58.223Z,30.50
2022-08-17T10:57:49.758Z,30.67
2022-08-17T11:00:24.293Z,31.01
2022-08-17T11:02:57.684Z,31.26
2022-08-17T11:05:43.738Z,31.41
2022-08-17T11:08:15.254Z,31.49
2022-08-17T11:10:49.936Z,31.35
2022-08-17T11:13:40.671Z,31.10
2022-08-17T11:16:28.431Z,30.81
2022-08-17T11:19:27.061Z,30.79
2022-08-17T11:22:33.527Z,30.88
2022-08-17T11:25:16.431Z,30.99
2022-08-17T11:27:49.793Z,31.09
2022-08-17T11:30:47.059Z,31.24
2022-08-17T11:33:36.649Z,31.42
2022-08-17T11:36:23.530Z,31.27
2022-08-17T11:38:58.192Z,31.10
2022-08-17T11:42:09.366Z,30.87
2022-08-17T11:44:55.478Z,30.54
2022-08-17T11:48:02.239Z,30.28
2022-08-17T11:51:10.183Z,30.11
2022-08-17T11:53:38.002Z,30.22
2022-08-17T11:56:31.852Z,30.42
2022-08-17T11:59:00.972Z,30.44
2022-08-17T12:01:29.406Z,30.46
2022-08-17T12:04:25.430Z,30.58
2022-08-17T12:06:59.961Z,30.85
2022-08-17T12:09:32.525Z,31.24
2022-08-17T12:12:36.056Z,31.66
2022-08-17T12:15:12.102Z,32.09
2022-08-17T12:17:42.861Z,32.05
2022-08-17T12:20:24.267Z,31.93
2022-08-17T12:23:05.081Z,31.92
2022-08-17T12:25:45.985Z,31.85
2022-08-17T12:28:30.008Z,31.70
2022-08-17T12:31:05.986Z,31.53
2022-08-17T12:33:36.988Z,31.46
2022-08-17T12:36:08.901Z,31.66
2022-08-17T12:38:38.376Z,31.98
2022-08-17T12:41:28.461Z,32.36
2022-08-17T12:44:05.869Z,32.82
2022-08-17T12:46:47.273Z,33.11
2022-08-17T12:49:22.787Z,33.27
2022-08-17T12:51:56.088Z,33.48
2022-08-17T12:54:31.490Z,33.44
2022-08-17T12:57:09.229Z,33.33
2022-08-17T12:59:41.475Z,33.05
2022-08-17T13:02:24.750Z,32.68
2022-08-17T13:04:53.804Z,32.33
2022-08-17T13:07:35.260Z,32.15
2022-08-17T13:10:04.489Z,32.28
2022-08-17T13:12:35.379Z,32.65
2022-08-17T13:15:04.420Z,33.03
2022-08-17T13:17:35.972Z,33.06
2022-08-17T13:20:13.484Z,32.82
2022-08-17T13:22:43.527Z,32.50
2022-08-17T13:25:16.917Z,32.41
2022-08-17T13:27:47.774Z,32.49
2022-08-17T13:30:23.974Z,32.68
2022-08-17T13:32:53.990Z,32.98
2022-08-17T13:35:40.610Z,33.19
2022-08-17T13:38:49.690Z,33.46
2022-08-17T13:41:34.696Z,33.64
2022-08-17T13:44:04.402Z,33.64
2022-08-17T13:46:33.425Z,33.72
2022-08-17T13:49:11.752Z,33.86
2022-08-17T13:51:45.793Z,34.03
2022-08-17T13:54:23.613Z,34.31
2022-08-17T13:56:51.426Z,34.66
2022-08-17T13:59:54.868Z,34.60
2022-08-17T14:02:27.689Z,34.13
2022-08-17T14:04:58.484Z,33.68
2022-08-17T14:07:34.136Z,33.40
2022-08-17T14:10:13.770Z,33.32
2022-08-17T14:12:43.901Z,33.29
2022-08-17T14:15:14.876Z,33.25
2022-08-17T14:17:42.851Z,33.39
2022-08-17T14:20:13.397Z,33.61
2022-08-17T14:22:45.440Z,33.89
2022-08-17T14:25:24.222Z,34.17
2022-08-17T14:27:54.067Z,34.50
2022-08-17T14:30:25.913Z,34.79
2022-08-17T14:32:58.299Z,34.78
2022-08-17T14:35:28.277Z,34.46
2022-08-17T14:37:57.391Z,33.99
2022-08-17T14:40:25.942Z,33.41
2022-08-17T14:42:56.056Z,32.84
2022-08-17T14:45:32.892Z,32.32
2022-08-17T14:48:04.427Z,32.11
2022-08-17T14:50:35.318Z,32.33
2022-08-17T14:53:06.044Z,32.68
2022-08-17T14:55:35.096Z,32.95
2022-08-17T14:58:04.284Z,33.02
2022-08-17T15:00:32.746Z,33.11
2022-08-17T15:03:01.979Z,33.13
2022-08-17T15:05:33.730Z,33.15
2022-08-17T15:08:03.316Z,33.20
2022-08-17T15:10:32.035Z,33.39
2022-08-17T15:13:00.601Z,33.56
2022-08-17T15:15:29.678Z,33.73
2022-08-17T15:18:00.118Z,33.89
2022-08-17T15:20:29.994Z,34.02
2022-08-17T15:22:59.356Z,34.15
2022-08-17T15:25:32.303Z,34.14
2022-08-17T15:28:01.723Z,34.00
2022-08-17T15:30:31.613Z,33.97
2022-08-17T15:33:01.951Z,34.07
2022-08-17T15:35:33.281Z,34.03
2022-08-17T15:38:11.287Z,34.00
2022-08-17T15:40:47.027Z,33.98
2022-08-17T15:43:23.316Z,33.93
2022-08-17T15:46:18.232Z,33.87
2022-08-17T15:48:49.725Z,33.99
2022-08-17T15:51:17.768Z,34.18
2022-08-17T15:53:50.773Z,34.50
2022-08-17T15:56:19.687Z,34.77
2022-08-17T15:58:48.891Z,34.86
2022-08-17T16:02:11.974Z,34.86
2022-08-17T16:04:14.921Z,34.84
2022-08-17T16:06:57.803Z,34.67
2022-08-17T16:09:26.067Z,34.46
2022-08-17T16:11:56.317Z,34.28
2022-08-17T16:14:32.554Z,34.18
2022-08-17T16:17:05.021Z,34.10
2022-08-17T16:19:53.031Z,33.98
2022-08-17T16:22:33.202Z,33.88
2022-08-17T16:25:08.358Z,33.88
2022-08-17T16:27:36.330Z,33.84
2022-08-17T16:30:07.545Z,33.89
2022-08-17T16:32:36.324Z,34.03
2022-08-17T16:35:08.921Z,34.04
2022-08-17T16:37:39.638Z,34.01
2022-08-17T16:40:10.525Z,34.11
2022-08-17T16:42:42.951Z,34.24
2022-08-17T16:45:14.743Z,34.29
2022-08-17T16:47:43.139Z,34.36
2022-08-17T16:50:14.744Z,34.40
2022-08-17T16:52:42.767Z,34.56
2022-08-17T16:55:13.447Z,34.81
2022-08-17T16:57:48.556Z,35.14
2022-08-17T17:00:20.970Z,35.50
2022-08-17T17:02:50.157Z,35.72
2022-08-17T17:05:51.308Z,35.99
2022-08-17T17:08:31.865Z,36.11
2022-08-17T17:11:08.937Z,36.14
2022-08-17T17:13:54.309Z,36.24
2022-08-17T17:16:29.722Z,36.24
2022-08-17T17:19:08.351Z,36.09
2022-08-17T17:21:49.793Z,35.85
2022-08-17T17:24:53.221Z,35.40
2022-08-17T17:27:59.611Z,34.85
2022-08-17T17:30:46.024Z,34.17
2022-08-17T17:33:34.877Z,33.43
2022-08-17T17:36:13.970Z,32.59
2022-08-17T17:38:50.142Z,31.80
2022-08-17T17:41:32.606Z,31.08
2022-08-17T17:44:07.591Z,30.42
2022-08-17T17:46:40.738Z,29.85
2022-08-17T17:49:14.412Z,29.35
2022-08-17T17:52:11.059Z,28.89
2022-08-17T17:54:59.392Z,28.40
2022-08-17T17:57:56.035Z,28.00
2022-08-17T18:00:30.766Z,27.62
2022-08-17T18:03:20.649Z,27.32
2022-08-17T18:06:06.957Z,27.05
2022-08-17T18:09:04.299Z,26.81
2022-08-17T18:12:00.827Z,26.58
2022-08-17T18:14:28.825Z,26.38
2022-08-17T18:16:59.266Z,26.22
2022-08-17T18:19:30.025Z,26.08
2022-08-17T18:22:14.595Z,25.93
2022-08-17T18:24:46.303Z,25.80
2022-08-17T18:27:40.721Z,25.68
2022-08-17T18:30:14.589Z,26.05
2022-08-17T18:32:46.691Z,27.57
2022-08-17T18:35:14.654Z,28.35
2022-08-17T18:37:43.070Z,27.78
2022-08-17T18:40:17.261Z,27.13
2022-08-17T18:42:57.543Z,26.65
2022-08-17T18:45:38.653Z,26.29
2022-08-17T18:48:19.775Z,26.03
2022-08-17T18:50:48.476Z,25.81
2022-08-17T18:53:34.278Z,25.92
2022-08-17T18:56:22.549Z,27.29
2022-08-17T18:59:04.540Z,28.04
2022-08-17T19:01:59.929Z,27.32
2022-08-17T19:04:34.094Z,26.55
2022-08-17T19:07:22.145Z,26.10
2022-08-17T19:09:53.357Z,25.72
2022-08-17T19:13:14.345Z,25.41
2022-08-17T19:16:15.917Z,25.90
2022-08-17T19:18:52.356Z,27.27
2022-08-17T19:21:40.598Z,27.64
2022-08-17T19:24:20.082Z,26.68
2022-08-17T19:27:06.616Z,25.81
2022-08-17T19:29:50.631Z,25.61
2022-08-17T19:32:23.595Z,26.78
2022-08-17T19:34:52.558Z,27.55
2022-08-17T19:37:32.964Z,27.68
2022-08-17T19:40:29.276Z,26.68
2022-08-17T19:43:02.610Z,25.60
2022-08-17T19:45:40.007Z,25.37
2022-08-17T19:48:12.747Z,26.45
2022-08-17T19:51:07.889Z,27.28
2022-08-17T19:54:15.464Z,27.33
2022-08-17T19:57:02.692Z,26.07
2022-08-17T20:00:03.051Z,25.10
2022-08-17T20:02:42.346Z,24.98
2022-08-17T20:06:08.839Z,26.10
2022-08-17T20:08:33.473Z,26.92
2022-08-17T20:11:15.274Z,27.22
2022-08-17T20:13:50.201Z,27.17
2022-08-17T20:16:20.211Z,26.11
2022-08-17T20:18:50.686Z,25.48
2022-08-17T20:21:23.699Z,26.28
2022-08-17T20:24:14.198Z,27.02
2022-08-17T20:26:57.900Z,27.06
2022-08-17T20:29:37.268Z,25.88
2022-08-17T20:32:19.017Z,25.34
2022-08-17T20:34:48.010Z,26.18
2022-08-17T20:37:15.907Z,26.75
2022-08-17T20:39:50.222Z,27.11
2022-08-17T20:42:20.949Z,27.10
2022-08-17T20:44:58.140Z,26.10
2022-08-17T20:47:55.095Z,25.15
2022-08-17T20:50:34.857Z,25.00
2022-08-17T20:53:05.518Z,26.19
2022-08-17T20:55:51.520Z,27.00
2022-08-17T20:58:30.624Z,27.09
2022-08-17T21:01:00.276Z,26.09
2022-08-17T21:03:28.422Z,25.26
2022-08-17T21:06:19.255Z,25.07
2022-08-17T21:08:58.776Z,26.22
2022-08-17T21:11:56.766Z,27.11
2022-08-17T21:14:56.513Z,27.31
2022-08-17T21:17:33.483Z,26.25
2022-08-17T21:20:43.315Z,25.47
2022-08-17T21:23:22.794Z,24.79
2022-08-17T21:26:02.687Z,24.87
2022-08-17T21:29:00.450Z,26.22
2022-08-17T21:32:09.730Z,26.83
2022-08-17T21:34:43.215Z,25.84
2022-08-17T21:37:20.232Z,25.14
2022-08-17T21:39:55.823Z,24.97
2022-08-17T21:42:32.205Z,26.18
2022-08-17T21:45:10.028Z,26.84
2022-08-17T21:47:43.513Z,26.07
2022-08-17T21:50:21.580Z,25.22
2022-08-17T21:52:56.120Z,24.89
2022-08-17T21:55:29.932Z,25.99
2022-08-17T21:58:14.916Z,26.84
2022-08-17T22:00:44.725Z,26.94
2022-08-17T22:03:26.599Z,25.94
2022-08-17T22:05:54.643Z,25.03
2022-08-17T22:08:25.330Z,24.81
2022-08-17T22:11:01.393Z,25.91
2022-08-17T22:13:30.041Z,26.86
2022-08-17T22:16:29.543Z,27.04
2022-08-17T22:18:59.609Z,26.00
2022-08-17T22:21:27.557Z,25.18
2022-08-17T22:24:06.245Z,24.58
2022-08-17T22:27:06.201Z,24.52
2022-08-17T22:29:45.629Z,25.90
2022-08-17T22:32:35.191Z,26.43
2022-08-17T22:35:32.996Z,25.53
2022-08-17T22:38:19.580Z,24.60
2022-08-17T22:40:51.263Z,24.46
2022-08-17T22:43:24.200Z,25.61
2022-08-17T22:45:58.426Z,26.43
2022-08-17T22:48:29.473Z,26.60
2022-08-17T22:51:31.205Z,25.70
2022-08-17T22:54:21.923Z,24.67
2022-08-17T22:57:19.994Z,24.57
2022-08-17T23:04:01.618Z,26.85
2022-08-17T23:06:33.983Z,26.91
2022-08-17T23:09:04.381Z,26.01
2022-08-17T23:11:58.672Z,25.16
2022-08-17T23:14:31.726Z,24.50
2022-08-17T23:17:00.880Z,24.36
2022-08-17T23:19:31.866Z,25.43
2022-08-17T23:22:04.418Z,26.31
2022-08-17T23:24:43.614Z,26.50
2022-08-17T23:27:12.347Z,25.60
2022-08-17T23:29:42.253Z,24.80
2022-08-17T23:32:14.819Z,24.26
2022-08-17T23:34:45.156Z,24.26
2022-08-17T23:37:13.267Z,25.51
2022-08-17T23:39:44.674Z,26.39
2022-08-17T23:42:16.666Z,26.57
2022-08-17T23:44:44.973Z,25.61
2022-08-17T23:47:12.906Z,24.69
2022-08-17T23:49:42.140Z,24.43
2022-08-17T23:52:15.340Z,25.55
2022-08-17T23:54:48.265Z,26.40
2022-08-17T23:57:19.409Z,26.59
2022-08-17T23:59:47.311Z,25.70
